sensor_id;sensor_type;location;lat;lon;timestamp;temperature;humidity
53954;HTU21D;39862;54.856;26.318;2022-09-12T02:13:31;12.6;70.3
53954;HTU21D;39862;54.856;26.318;2022-09-12T02:18:17;12.7;72
53954;HTU21D;39862;54.856;26.318;2022-09-12T02:23:29;12.7;72.1
53954;HTU21D;39862;54.856;26.318;2022-09-12T02:29:09;12.7;72
53954;HTU21D;39862;54.856;26.318;2022-09-12T02:34:12;12.8;72
53954;HTU21D;39862;54.856;26.318;2022-09-12T02:38:41;12.8;71.8
53954;HTU21D;39862;54.856;26.318;2022-09-12T02:43:39;12.8;71.8
53954;HTU21D;39862;54.856;26.318;2022-09-12T02:48:55;12.8;71.8
53954;HTU21D;39862;54.856;26.318;2022-09-12T02:54:09;12.8;71.8
53954;HTU21D;39862;54.856;26.318;2022-09-12T02:58:41;12.9;71.7
53954;HTU21D;39862;54.856;26.318;2022-09-12T03:03:34;12.9;71.8
53954;HTU21D;39862;54.856;26.318;2022-09-12T03:08:36;12.9;71.8
53954;HTU21D;39862;54.856;26.318;2022-09-12T03:13:32;12.9;71.8
53954;HTU21D;39862;54.856;26.318;2022-09-12T03:18:41;12.9;71.9
53954;HTU21D;39862;54.856;26.318;2022-09-12T03:23:59;12.9;71.9
53954;HTU21D;39862;54.856;26.318;2022-09-12T03:29:07;12.9;71.9
53954;HTU21D;39862;54.856;26.318;2022-09-12T03:33:53;12.9;71.9
53954;HTU21D;39862;54.856;26.318;2022-09-12T03:38:39;13;71.9
53954;HTU21D;39862;54.856;26.318;2022-09-12T03:44:09;13;71.9
53954;HTU21D;39862;54.856;26.318;2022-09-12T03:48:53;13;71.8
53954;HTU21D;39862;54.856;26.318;2022-09-12T03:54:10;13;71.9
53954;HTU21D;39862;54.856;26.318;2022-09-12T03:58:43;13;71.9
53954;HTU21D;39862;54.856;26.318;2022-09-12T04:09:07;13;71.8
53954;HTU21D;39862;54.856;26.318;2022-09-12T04:13:40;13;71.8
53954;HTU21D;39862;54.856;26.318;2022-09-12T04:33:39;13;71.8
53954;HTU21D;39862;54.856;26.318;2022-09-12T04:38:53;13;71.8
53954;HTU21D;39862;54.856;26.318;2022-09-12T04:44:10;13;71.8
53954;HTU21D;39862;54.856;26.318;2022-09-12T04:48:25;13;71.8
53954;HTU21D;39862;54.856;26.318;2022-09-12T04:53:29;13;71.8
53954;HTU21D;39862;54.856;26.318;2022-09-12T04:59:07;13;71.8
53954;HTU21D;39862;54.856;26.318;2022-09-12T05:04:10;13;71.8
53954;HTU21D;39862;54.856;26.318;2022-09-12T05:09:06;13;71.8
53954;HTU21D;39862;54.856;26.318;2022-09-12T05:13:29;13;71.8
53954;HTU21D;39862;54.856;26.318;2022-09-12T05:19:05;13;71.8
53954;HTU21D;39862;54.856;26.318;2022-09-12T05:24:05;13;71.8
53954;HTU21D;39862;54.856;26.318;2022-09-12T05:28:39;13;71.8
53954;HTU21D;39862;54.856;26.318;2022-09-12T05:33:42;13;71.8
53954;HTU21D;39862;54.856;26.318;2022-09-12T05:38:27;13;71.8
53954;HTU21D;39862;54.856;26.318;2022-09-12T05:43:17;13;71.8
53954;HTU21D;39862;54.856;26.318;2022-09-12T05:48:44;13;71.8
53954;HTU21D;39862;54.856;26.318;2022-09-12T05:53:28;13;71.8
53954;HTU21D;39862;54.856;26.318;2022-09-12T05:59:10;13;71.8
53954;HTU21D;39862;54.856;26.318;2022-09-12T06:03:50;13;71.8
53954;HTU21D;39862;54.856;26.318;2022-09-12T06:08:17;13;71.8
53954;HTU21D;39862;54.856;26.318;2022-09-12T06:14:06;13;71.8
53954;HTU21D;39862;54.856;26.318;2022-09-12T06:18:50;13;71.8
53954;HTU21D;39862;54.856;26.318;2022-09-12T06:24:05;13;71.8
53954;HTU21D;39862;54.856;26.318;2022-09-12T06:28:27;13;71.8
53954;HTU21D;39862;54.856;26.318;2022-09-12T06:33:17;13;71.8
53954;HTU21D;39862;54.856;26.318;2022-09-12T06:39:06;13;71.8
53954;HTU21D;39862;54.856;26.318;2022-09-12T06:43:51;13;71.8
53954;HTU21D;39862;54.856;26.318;2022-09-12T06:48:41;13;71.8
53954;HTU21D;39862;54.856;26.318;2022-09-12T06:53:53;13;71.8
53954;HTU21D;39862;54.856;26.318;2022-09-12T06:58:50;13;71.8
53954;HTU21D;39862;54.856;26.318;2022-09-12T07:03:39;13;71.8
53954;HTU21D;39862;54.856;26.318;2022-09-12T07:08:53;13;71.8
53954;HTU21D;39862;54.856;26.318;2022-09-12T07:14:06;13;71.8
53954;HTU21D;39862;54.856;26.318;2022-09-12T07:18:17;13;71.8
53954;HTU21D;39862;54.856;26.318;2022-09-12T07:24:06;13;71.8
53954;HTU21D;39862;54.856;26.318;2022-09-12T07:29:05;13;71.8
53954;HTU21D;39862;54.856;26.318;2022-09-12T07:34:05;13;71.8
53954;HTU21D;39862;54.856;26.318;2022-09-12T07:38:54;13;71.8
53954;HTU21D;39862;54.856;26.318;2022-09-12T07:44:07;13;71.8
53954;HTU21D;39862;54.856;26.318;2022-09-12T07:48:17;13;71.8
53954;HTU21D;39862;54.856;26.318;2022-09-12T07:53:51;13;71.8
53954;HTU21D;39862;54.856;26.318;2022-09-12T07:59:07;13;71.8
53954;HTU21D;39862;54.856;26.318;2022-09-12T08:03:42;13;71.8
53954;HTU21D;39862;54.856;26.318;2022-09-12T08:08:27;13;71.8
53954;HTU21D;39862;54.856;26.318;2022-09-12T08:13:27;13;71.8
53954;HTU21D;39862;54.856;26.318;2022-09-12T08:18:17;13;71.8
53954;HTU21D;39862;54.856;26.318;2022-09-12T08:23:41;13;71.8
53954;HTU21D;39862;54.856;26.318;2022-09-12T08:28:43;13;71.8
53954;HTU21D;39862;54.856;26.318;2022-09-12T08:33:53;13;71.8
53954;HTU21D;39862;54.856;26.318;2022-09-12T08:39:04;13;71.8
53954;HTU21D;39862;54.856;26.318;2022-09-12T08:43:44;13;71.8
53954;HTU21D;39862;54.856;26.318;2022-09-12T08:49:06;13;71.8
53954;HTU21D;39862;54.856;26.318;2022-09-12T08:54:12;13;71.8
53954;HTU21D;39862;54.856;26.318;2022-09-12T08:58:40;13;71.8
53954;HTU21D;39862;54.856;26.318;2022-09-12T09:03:22;13;71.8
53954;HTU21D;39862;54.856;26.318;2022-09-12T09:08:29;13;71.8
53954;HTU21D;39862;54.856;26.318;2022-09-12T09:14:17;13;71.8
53954;HTU21D;39862;54.856;26.318;2022-09-12T09:18:57;13;71.8
53954;HTU21D;39862;54.856;26.318;2022-09-12T09:23:54;13;71.8
53954;HTU21D;39862;54.856;26.318;2022-09-12T09:28:58;13;71.8
53954;HTU21D;39862;54.856;26.318;2022-09-12T09:33:52;13;71.8
53954;HTU21D;39862;54.856;26.318;2022-09-12T09:38:53;13;71.8
53954;HTU21D;39862;54.856;26.318;2022-09-12T09:43:41;13;71.8
53954;HTU21D;39862;54.856;26.318;2022-09-12T09:48:40;13;71.8
53954;HTU21D;39862;54.856;26.318;2022-09-12T09:58:28;13;71.8
53954;HTU21D;39862;54.856;26.318;2022-09-12T10:04:03;13;71.8
53954;HTU21D;39862;54.856;26.318;2022-09-12T10:08:51;13;71.8
53954;HTU21D;39862;54.856;26.318;2022-09-12T10:13:41;13;71.8
53954;HTU21D;39862;54.856;26.318;2022-09-12T10:18:38;13;71.8
53954;HTU21D;39862;54.856;26.318;2022-09-12T10:23:40;13;71.8
53954;HTU21D;39862;54.856;26.318;2022-09-12T10:29:10;13;71.8
53954;HTU21D;39862;54.856;26.318;2022-09-12T10:33:40;13;71.8
53954;HTU21D;39862;54.856;26.318;2022-09-12T10:38:40;13;71.8
53954;HTU21D;39862;54.856;26.318;2022-09-12T10:43:35;13;71.8
53954;HTU21D;39862;54.856;26.318;2022-09-12T10:48:22;13;71.8
53954;HTU21D;39862;54.856;26.318;2022-09-12T10:53:43;13;71.8
53954;HTU21D;39862;54.856;26.318;2022-09-12T10:58:45;13;71.8
53954;HTU21D;39862;54.856;26.318;2022-09-12T11:04:04;13;71.8
53954;HTU21D;39862;54.856;26.318;2022-09-12T11:09:10;13;71.8
53954;HTU21D;39862;54.856;26.318;2022-09-12T11:13:44;13;71.8
53954;HTU21D;39862;54.856;26.318;2022-09-12T11:24:07;13;71.8
53954;HTU21D;39862;54.856;26.318;2022-09-12T11:28:21;13;71.8
53954;HTU21D;39862;54.856;26.318;2022-09-12T11:33:23;13;71.8
53954;HTU21D;39862;54.856;26.318;2022-09-12T11:38:45;13;71.8
53954;HTU21D;39862;54.856;26.318;2022-09-12T11:44:09;13;71.8
53954;HTU21D;39862;54.856;26.318;2022-09-12T11:48:58;13;71.8
53954;HTU21D;39862;54.856;26.318;2022-09-12T11:53:59;13;71.8
53954;HTU21D;39862;54.856;26.318;2022-09-12T11:58:56;13;71.8
53954;HTU21D;39862;54.856;26.318;2022-09-12T12:03:49;13;71.8
53954;HTU21D;39862;54.856;26.318;2022-09-12T12:08:38;13;71.8
53954;HTU21D;39862;54.856;26.318;2022-09-12T12:14:16;13;71.8
53954;HTU21D;39862;54.856;26.318;2022-09-12T12:19:08;13;71.8
53954;HTU21D;39862;54.856;26.318;2022-09-12T12:23:30;13;71.8
53954;HTU21D;39862;54.856;26.318;2022-09-12T12:28:56;13;71.8
53954;HTU21D;39862;54.856;26.318;2022-09-12T12:34:18;13;71.8
53954;HTU21D;39862;54.856;26.318;2022-09-12T12:39:56;13;71.8
53954;HTU21D;39862;54.856;26.318;2022-09-12T12:44:45;13;71.8
53954;HTU21D;39862;54.856;26.318;2022-09-12T12:49:16;13;71.8
53954;HTU21D;39862;54.856;26.318;2022-09-12T12:54:25;13;71.8
53954;HTU21D;39862;54.856;26.318;2022-09-12T12:59:16;13;71.8
53954;HTU21D;39862;54.856;26.318;2022-09-12T13:03:39;13;71.8
53954;HTU21D;39862;54.856;26.318;2022-09-12T13:08:42;13;71.8
53954;HTU21D;39862;54.856;26.318;2022-09-12T13:13:41;13;71.8
53954;HTU21D;39862;54.856;26.318;2022-09-12T13:18:21;13;71.8
53954;HTU21D;39862;54.856;26.318;2022-09-12T13:23:42;13;71.8
53954;HTU21D;39862;54.856;26.318;2022-09-12T13:28:41;13;71.8
53954;HTU21D;39862;54.856;26.318;2022-09-12T13:34:06;13;71.8
53954;HTU21D;39862;54.856;26.318;2022-09-12T13:43:40;13;71.8
53954;HTU21D;39862;54.856;26.318;2022-09-12T13:49:16;13;71.8
53954;HTU21D;39862;54.856;26.318;2022-09-12T13:53:52;13;71.8
53954;HTU21D;39862;54.856;26.318;2022-09-12T13:59:09;13;71.8
53954;HTU21D;39862;54.856;26.318;2022-09-12T14:03:29;13;71.8
53954;HTU21D;39862;54.856;26.318;2022-09-12T14:08:17;13;71.8
53954;HTU21D;39862;54.856;26.318;2022-09-12T14:14:04;13;71.8
53954;HTU21D;39862;54.856;26.318;2022-09-12T14:18:53;13;71.8
53954;HTU21D;39862;54.856;26.318;2022-09-12T14:23:40;13;71.8
53954;HTU21D;39862;54.856;26.318;2022-09-12T14:28:51;13;71.8
53954;HTU21D;39862;54.856;26.318;2022-09-12T14:33:50;13;71.8
53954;HTU21D;39862;54.856;26.318;2022-09-12T14:38:30;13;71.8
53954;HTU21D;39862;54.856;26.318;2022-09-12T14:43:43;13;71.8
53954;HTU21D;39862;54.856;26.318;2022-09-12T14:49:37;13;71.8
53954;HTU21D;39862;54.856;26.318;2022-09-12T14:53:23;13;71.8
53954;HTU21D;39862;54.856;26.318;2022-09-12T14:58:23;13;71.8
53954;HTU21D;39862;54.856;26.318;2022-09-12T15:04:03;13;71.8
53954;HTU21D;39862;54.856;26.318;2022-09-12T15:09:06;13;71.8
53954;HTU21D;39862;54.856;26.318;2022-09-12T15:14:08;13;71.8
53954;HTU21D;39862;54.856;26.318;2022-09-12T15:18:37;13;71.8
53954;HTU21D;39862;54.856;26.318;2022-09-12T15:24:06;13;71.8
53954;HTU21D;39862;54.856;26.318;2022-09-12T15:29:07;13;71.8
53954;HTU21D;39862;54.856;26.318;2022-09-12T15:33:39;13;71.8
53954;HTU21D;39862;54.856;26.318;2022-09-12T15:38:39;13;71.8
53954;HTU21D;39862;54.856;26.318;2022-09-12T15:43:27;13;71.8
53954;HTU21D;39862;54.856;26.318;2022-09-12T15:48:18;13;71.8
53954;HTU21D;39862;54.856;26.318;2022-09-12T15:53:51;13;71.8
53954;HTU21D;39862;54.856;26.318;2022-09-12T15:58:27;13;71.8
53954;HTU21D;39862;54.856;26.318;2022-09-12T16:04:23;13;71.8
53954;HTU21D;39862;54.856;26.318;2022-09-12T16:08:51;13;71.8
53954;HTU21D;39862;54.856;26.318;2022-09-12T16:13:27;13;71.8
53954;HTU21D;39862;54.856;26.318;2022-09-12T16:19:05;13;71.8
53954;HTU21D;39862;54.856;26.318;2022-09-12T16:23:51;13;71.8
53954;HTU21D;39862;54.856;26.318;2022-09-12T16:29:05;13;71.8
53954;HTU21D;39862;54.856;26.318;2022-09-12T16:33:28;13;71.8
53954;HTU21D;39862;54.856;26.318;2022-09-12T16:38:17;13;71.8
53954;HTU21D;39862;54.856;26.318;2022-09-12T16:43:30;13;71.8
53954;HTU21D;39862;54.856;26.318;2022-09-12T16:49:05;13;71.8
53954;HTU21D;39862;54.856;26.318;2022-09-12T16:53:55;13;71.8
53954;HTU21D;39862;54.856;26.318;2022-09-12T16:58:54;13;71.8
53954;HTU21D;39862;54.856;26.318;2022-09-12T17:03:54;13;71.8
53954;HTU21D;39862;54.856;26.318;2022-09-12T17:08:52;13;71.8
53954;HTU21D;39862;54.856;26.318;2022-09-12T17:13:39;13;71.8
53954;HTU21D;39862;54.856;26.318;2022-09-12T17:18:53;13;71.8
53954;HTU21D;39862;54.856;26.318;2022-09-12T17:23:27;13;71.8
53954;HTU21D;39862;54.856;26.318;2022-09-12T17:28:28;13;71.8
53954;HTU21D;39862;54.856;26.318;2022-09-12T17:33:29;13;71.8
53954;HTU21D;39862;54.856;26.318;2022-09-12T17:39:05;13;71.8
53954;HTU21D;39862;54.856;26.318;2022-09-12T17:44:05;13;71.8
53954;HTU21D;39862;54.856;26.318;2022-09-12T17:48:27;13;71.8
53954;HTU21D;39862;54.856;26.318;2022-09-12T17:53:40;13;71.8
53954;HTU21D;39862;54.856;26.318;2022-09-12T17:58:54;13;71.8
53954;HTU21D;39862;54.856;26.318;2022-09-12T18:04:05;13;71.8
53954;HTU21D;39862;54.856;26.318;2022-09-12T18:08:27;13;71.8
53954;HTU21D;39862;54.856;26.318;2022-09-12T18:13:17;13;71.8
53954;HTU21D;39862;54.856;26.318;2022-09-12T18:18:17;13;71.8
53954;HTU21D;39862;54.856;26.318;2022-09-12T18:23:17;13;71.8
53954;HTU21D;39862;54.856;26.318;2022-09-12T18:28:42;13;71.8
53954;HTU21D;39862;54.856;26.318;2022-09-12T18:33:42;13;71.8
53954;HTU21D;39862;54.856;26.318;2022-09-12T18:38:50;13;71.8
53954;HTU21D;39862;54.856;26.318;2022-09-12T18:43:54;13;71.8
53954;HTU21D;39862;54.856;26.318;2022-09-12T18:48:38;13;71.8
53954;HTU21D;39862;54.856;26.318;2022-09-12T18:54:11;13;71.8
53954;HTU21D;39862;54.856;26.318;2022-09-12T18:59:06;13;71.8
53954;HTU21D;39862;54.856;26.318;2022-09-12T19:03:18;13;71.8
53954;HTU21D;39862;54.856;26.318;2022-09-12T19:08:29;13;71.8
53954;HTU21D;39862;54.856;26.318;2022-09-12T19:13:42;13;71.8
53954;HTU21D;39862;54.856;26.318;2022-09-12T19:19:06;13;71.8
53954;HTU21D;39862;54.856;26.318;2022-09-12T19:23:56;13;71.8
53954;HTU21D;39862;54.856;26.318;2022-09-12T19:28:52;13;71.8
53954;HTU21D;39862;54.856;26.318;2022-09-12T19:33:38;13;71.8
53954;HTU21D;39862;54.856;26.318;2022-09-12T19:38:49;13;71.8
53954;HTU21D;39862;54.856;26.318;2022-09-12T19:43:17;13;71.8
53954;HTU21D;39862;54.856;26.318;2022-09-12T19:48:53;13;71.8
53954;HTU21D;39862;54.856;26.318;2022-09-12T19:53:50;13;71.8
53954;HTU21D;39862;54.856;26.318;2022-09-12T19:58:28;13;71.8
53954;HTU21D;39862;54.856;26.318;2022-09-12T20:03:40;13;71.8
53954;HTU21D;39862;54.856;26.318;2022-09-12T20:09:04;13;71.8
53954;HTU21D;39862;54.856;26.318;2022-09-12T20:13:42;13;71.8
53954;HTU21D;39862;54.856;26.318;2022-09-12T20:18:40;13;71.8
53954;HTU21D;39862;54.856;26.318;2022-09-12T20:23:39;13;71.8
53954;HTU21D;39862;54.856;26.318;2022-09-12T20:28:51;13;71.8
53954;HTU21D;39862;54.856;26.318;2022-09-12T20:34:04;13;71.8
53954;HTU21D;39862;54.856;26.318;2022-09-12T20:38:36;13;71.8
53954;HTU21D;39862;54.856;26.318;2022-09-12T20:43:18;13;71.8
53954;HTU21D;39862;54.856;26.318;2022-09-12T20:48:29;13;71.8
53954;HTU21D;39862;54.856;26.318;2022-09-12T20:53:51;13;71.8
53954;HTU21D;39862;54.856;26.318;2022-09-12T20:58:42;13;71.8
53954;HTU21D;39862;54.856;26.318;2022-09-12T21:03:42;13;71.8
53954;HTU21D;39862;54.856;26.318;2022-09-12T21:09:00;13.7;70
53954;HTU21D;39862;54.856;26.318;2022-09-12T21:13:48;13.7;70.1
53954;HTU21D;39862;54.856;26.318;2022-09-12T21:18:40;13.7;70.1
53954;HTU21D;39862;54.856;26.318;2022-09-12T21:24:04;13.7;70.1
53954;HTU21D;39862;54.856;26.318;2022-09-12T21:28:50;13.6;70.2
53954;HTU21D;39862;54.856;26.318;2022-09-12T21:34:06;13.6;70.3
53954;HTU21D;39862;54.856;26.318;2022-09-12T21:38:28;13.6;70.3
53954;HTU21D;39862;54.856;26.318;2022-09-12T21:43:28;13.6;70.3
53954;HTU21D;39862;54.856;26.318;2022-09-12T21:49:06;13.6;70.4
53954;HTU21D;39862;54.856;26.318;2022-09-12T22:03:52;13.6;70.4
53954;HTU21D;39862;54.856;26.318;2022-09-12T22:08:48;13.6;70.4
53954;HTU21D;39862;54.856;26.318;2022-09-12T22:13:40;13.6;70.4
53954;HTU21D;39862;54.856;26.318;2022-09-12T22:18:52;13.6;70.4
53954;HTU21D;39862;54.856;26.318;2022-09-12T22:24:02;13.6;70.4
53954;HTU21D;39862;54.856;26.318;2022-09-12T22:28:18;13.6;70.4
53954;HTU21D;39862;54.856;26.318;2022-09-12T22:33:18;13.6;70.4
53954;HTU21D;39862;54.856;26.318;2022-09-12T22:39:04;13.6;70.4
53954;HTU21D;39862;54.856;26.318;2022-09-12T22:44:02;13.6;70.4
53954;HTU21D;39862;54.856;26.318;2022-09-12T22:49:04;13.6;70.4
53954;HTU21D;39862;54.856;26.318;2022-09-12T22:53:18;13.6;70.4
53954;HTU21D;39862;54.856;26.318;2022-09-12T22:59:02;13.6;70.4
